createdAt,value
2023-02-09T00:00:19.638Z,36.59
2023-02-09T00:02:47.167Z,36.63
2023-02-09T00:05:14.376Z,36.67
2023-02-09T00:07:41.624Z,36.74
2023-02-09T00:10:09.217Z,36.53
2023-02-09T00:12:55.834Z,36.64
2023-02-09T00:15:23.203Z,36.50
2023-02-09T00:17:50.465Z,36.35
2023-02-09T00:20:17.922Z,36.17
2023-02-09T00:22:45.147Z,36.25
2023-02-09T00:25:12.402Z,36.10
2023-02-09T00:27:39.625Z,36.02
2023-02-09T00:30:07.524Z,35.90
2023-02-09T00:32:34.813Z,35.93
2023-02-09T00:35:02.273Z,36.00
2023-02-09T00:37:29.694Z,36.04
2023-02-09T00:39:56.954Z,35.92
2023-02-09T00:42:24.231Z,35.74
2023-02-09T00:44:51.574Z,35.83
2023-02-09T00:47:18.838Z,35.53
2023-02-09T00:49:46.768Z,35.72
2023-02-09T00:52:14.050Z,35.70
2023-02-09T00:54:41.604Z,35.62
2023-02-09T00:57:09.615Z,35.57
2023-02-09T00:59:40.703Z,35.53
2023-02-09T01:02:10.522Z,35.54
2023-02-09T01:04:39.454Z,35.55
2023-02-09T01:07:07.096Z,35.79
2023-02-09T01:09:34.358Z,35.66
2023-02-09T01:12:01.718Z,35.71
2023-02-09T01:14:28.992Z,35.63
2023-02-09T01:16:59.039Z,35.53
2023-02-09T01:19:26.935Z,35.46
2023-02-09T01:21:55.258Z,35.53
2023-02-09T01:24:22.537Z,35.48
2023-02-09T01:26:49.908Z,35.48
2023-02-09T01:29:19.507Z,35.33
2023-02-09T01:31:48.921Z,35.32
2023-02-09T01:34:19.344Z,35.52
2023-02-09T01:36:49.374Z,35.25
2023-02-09T01:39:17.041Z,35.26
2023-02-09T01:41:44.365Z,35.28
2023-02-09T01:44:11.693Z,35.36
2023-02-09T01:46:39.499Z,35.42
2023-02-09T01:49:09.553Z,35.30
2023-02-09T01:51:42.737Z,35.36
2023-02-09T01:54:13.467Z,35.40
2023-02-09T01:56:45.844Z,35.17
2023-02-09T01:59:14.687Z,35.24
2023-02-09T02:01:43.623Z,35.18
2023-02-09T02:04:11.041Z,35.36
2023-02-09T02:06:38.965Z,35.24
2023-02-09T02:09:13.471Z,35.33
2023-02-09T02:11:45.998Z,35.21
2023-02-09T02:14:34.280Z,35.18
2023-02-09T02:17:02.015Z,35.16
2023-02-09T02:20:04.559Z,35.19
2023-02-09T02:22:37.769Z,35.33
2023-02-09T02:25:16.967Z,35.26
2023-02-09T02:28:02.960Z,35.30
2023-02-09T02:30:57.683Z,35.24
2023-02-09T02:33:38.182Z,35.16
2023-02-09T02:36:13.118Z,35.30
2023-02-09T02:39:07.758Z,35.22
2023-02-09T02:42:12.423Z,35.16
2023-02-09T02:44:43.628Z,35.11
2023-02-09T02:47:16.698Z,35.11
2023-02-09T02:50:07.892Z,35.09
2023-02-09T02:52:35.561Z,35.14
2023-02-09T02:55:12.941Z,34.92
2023-02-09T02:57:45.277Z,35.10
2023-02-09T03:00:16.619Z,35.11
2023-02-09T03:02:49.515Z,35.10
2023-02-09T03:05:18.744Z,35.11
2023-02-09T03:07:45.960Z,35.07
2023-02-09T03:10:35.023Z,35.06
2023-02-09T03:13:10.128Z,35.20
2023-02-09T03:15:51.222Z,35.23
2023-02-09T03:18:32.031Z,35.19
2023-02-09T03:21:06.558Z,35.24
2023-02-09T03:23:48.990Z,35.33
2023-02-09T03:26:25.382Z,35.39
2023-02-09T03:28:56.532Z,35.36
2023-02-09T03:31:26.131Z,35.12
2023-02-09T03:33:57.322Z,35.41
2023-02-09T03:36:25.786Z,35.37
2023-02-09T03:38:53.043Z,35.42
2023-02-09T03:41:20.322Z,35.27
2023-02-09T03:44:05.890Z,35.07
2023-02-09T03:46:33.782Z,35.47
2023-02-09T03:49:01.101Z,35.48
2023-02-09T03:51:28.347Z,35.34
2023-02-09T03:53:55.579Z,35.42
2023-02-09T03:56:24.969Z,35.33
2023-02-09T03:58:52.791Z,35.39
2023-02-09T04:01:20.171Z,35.37
2023-02-09T04:03:47.562Z,35.25
2023-02-09T04:06:14.904Z,35.22
2023-02-09T04:08:43.164Z,35.28
2023-02-09T04:11:10.460Z,35.30
2023-02-09T04:13:37.676Z,35.24
2023-02-09T04:16:05.324Z,35.18
2023-02-09T04:18:32.599Z,35.37
2023-02-09T04:20:59.855Z,35.36
2023-02-09T04:23:27.142Z,35.23
2023-02-09T04:25:54.392Z,35.37
2023-02-09T04:28:21.642Z,35.44
2023-02-09T04:30:54.093Z,35.52
2023-02-09T04:33:22.098Z,35.38
2023-02-09T04:35:49.721Z,35.22
2023-02-09T04:38:19.629Z,35.23
2023-02-09T04:40:48.604Z,35.25
2023-02-09T04:43:16.568Z,35.14
2023-02-09T04:45:44.309Z,35.11
2023-02-09T04:48:14.592Z,35.22
2023-02-09T04:50:42.478Z,35.16
2023-02-09T04:53:10.584Z,35.20
2023-02-09T04:55:42.570Z,35.15
2023-02-09T04:58:30.771Z,35.19
2023-02-09T05:00:58.451Z,35.03
2023-02-09T05:03:26.132Z,35.30
2023-02-09T05:05:58.074Z,35.27
2023-02-09T05:08:25.339Z,35.27
2023-02-09T05:10:53.608Z,35.27
2023-02-09T05:13:22.565Z,35.30
2023-02-09T05:15:50.130Z,35.36
2023-02-09T05:18:17.754Z,35.34
2023-02-09T05:20:46.144Z,35.29
2023-02-09T05:23:13.842Z,35.13
2023-02-09T05:25:41.222Z,35.35
2023-02-09T05:28:08.962Z,35.07
2023-02-09T05:30:37.625Z,35.03
2023-02-09T05:33:04.989Z,35.07
2023-02-09T05:35:32.278Z,35.11
2023-02-09T05:37:59.576Z,35.02
2023-02-09T05:40:26.891Z,35.07
2023-02-09T05:42:55.012Z,35.05
2023-02-09T05:45:23.358Z,35.04
2023-02-09T05:47:50.600Z,34.93
2023-02-09T05:50:17.990Z,35.09
2023-02-09T05:52:46.410Z,35.11
2023-02-09T05:55:13.788Z,34.97
2023-02-09T05:57:41.016Z,34.95
2023-02-09T06:00:08.887Z,34.94
2023-02-09T06:02:44.592Z,34.96
2023-02-09T06:05:12.004Z,34.98
2023-02-09T06:07:39.232Z,35.13
2023-02-09T06:10:06.780Z,35.12
2023-02-09T06:12:34.036Z,35.04
2023-02-09T06:15:01.618Z,35.01
2023-02-09T06:17:28.895Z,35.09
2023-02-09T06:19:56.145Z,35.08
2023-02-09T06:22:23.388Z,35.12
2023-02-09T06:24:50.715Z,35.02
2023-02-09T06:27:17.995Z,35.08
2023-02-09T06:29:45.263Z,35.09
2023-02-09T06:32:12.629Z,35.03
2023-02-09T06:34:39.897Z,35.04
2023-02-09T06:37:07.228Z,35.01
2023-02-09T06:39:34.529Z,34.93
2023-02-09T06:42:01.850Z,35.05
2023-02-09T06:44:29.235Z,34.86
2023-02-09T06:46:56.503Z,34.87
2023-02-09T06:49:25.296Z,34.76
2023-02-09T06:51:52.929Z,34.94
2023-02-09T06:54:21.272Z,35.20
2023-02-09T06:56:48.654Z,35.35
2023-02-09T06:59:16.200Z,35.72
2023-02-09T07:01:43.659Z,35.68
2023-02-09T07:04:10.995Z,31.28
2023-02-09T07:06:38.376Z,29.32
2023-02-09T07:09:05.636Z,29.38
2023-02-09T07:11:32.892Z,32.20
2023-02-09T07:14:00.150Z,33.56
2023-02-09T07:16:27.578Z,33.89
2023-02-09T07:18:55.053Z,33.82
2023-02-09T07:21:22.755Z,33.82
2023-02-09T07:23:50.019Z,34.09
2023-02-09T07:26:18.395Z,33.97
2023-02-09T07:28:45.746Z,34.16
2023-02-09T07:31:15.163Z,34.74
2023-02-09T07:33:42.751Z,34.57
2023-02-09T07:36:11.921Z,34.67
2023-02-09T07:38:39.797Z,34.96
2023-02-09T07:41:08.300Z,34.93
2023-02-09T07:43:35.572Z,35.01
2023-02-09T07:46:05.485Z,35.30
2023-02-09T07:48:34.179Z,35.36
2023-02-09T07:51:01.528Z,35.49
2023-02-09T07:53:29.727Z,35.68
2023-02-09T07:55:57.275Z,35.51
2023-02-09T07:58:24.755Z,35.46
2023-02-09T08:00:52.113Z,35.69
2023-02-09T08:03:22.400Z,35.52
2023-02-09T08:06:01.842Z,35.56
2023-02-09T08:08:29.173Z,35.86
2023-02-09T08:10:58.578Z,35.69
2023-02-09T08:13:30.160Z,35.80
2023-02-09T08:16:02.916Z,35.69
2023-02-09T08:18:39.879Z,33.59
2023-02-09T08:21:11.466Z,27.42
2023-02-09T08:23:40.962Z,27.11
2023-02-09T08:26:11.249Z,29.78
2023-02-09T08:28:44.932Z,31.70
2023-02-09T08:31:18.793Z,34.23
2023-02-09T08:33:47.812Z,34.95
2023-02-09T08:36:16.580Z,35.12
2023-02-09T08:38:44.696Z,27.65
2023-02-09T08:41:13.970Z,28.12
2023-02-09T08:46:22.630Z,34.17
2023-02-09T08:48:50.066Z,33.01
2023-02-09T08:51:17.810Z,32.90
2023-02-09T08:53:52.280Z,34.38
2023-02-09T08:56:22.499Z,33.42
2023-02-09T08:58:50.233Z,32.80
2023-02-09T09:01:17.529Z,34.74
2023-02-09T09:03:45.156Z,33.26
2023-02-09T09:06:12.735Z,33.50
2023-02-09T09:08:40.893Z,33.33
2023-02-09T09:11:12.892Z,32.05
2023-02-09T09:13:41.188Z,33.42
2023-02-09T09:16:15.329Z,33.94
2023-02-09T09:18:44.305Z,33.42
2023-02-09T09:21:17.576Z,33.72
2023-02-09T09:23:46.768Z,33.55
2023-02-09T09:26:15.532Z,33.60
2023-02-09T09:28:42.880Z,33.45
2023-02-09T09:31:13.027Z,33.78
2023-02-09T09:33:42.484Z,33.17
2023-02-09T09:36:10.979Z,32.99
2023-02-09T09:38:39.269Z,33.03
2023-02-09T09:41:25.643Z,32.97
2023-02-09T09:43:54.121Z,32.61
2023-02-09T09:46:30.206Z,32.42
2023-02-09T09:48:59.305Z,32.50
2023-02-09T09:51:47.771Z,32.15
2023-02-09T09:54:23.184Z,32.38
2023-02-09T09:56:52.468Z,32.67
2023-02-09T09:59:23.939Z,31.69
2023-02-09T10:01:53.782Z,31.30
2023-02-09T10:04:21.168Z,31.21
2023-02-09T10:06:58.895Z,31.74
2023-02-09T10:09:39.121Z,32.05
2023-02-09T10:12:50.805Z,32.08
2023-02-09T10:15:29.875Z,31.98
2023-02-09T10:17:58.988Z,33.20
2023-02-09T10:20:47.361Z,31.60
2023-02-09T10:24:09.931Z,32.09
2023-02-09T10:26:40.267Z,31.71
2023-02-09T10:29:13.599Z,31.54
2023-02-09T10:31:42.872Z,31.63
2023-02-09T10:34:15.435Z,30.61
2023-02-09T10:36:53.586Z,30.93
2023-02-09T10:39:24.881Z,31.59
2023-02-09T10:41:55.443Z,31.77
2023-02-09T10:44:27.191Z,31.22
2023-02-09T10:47:18.638Z,30.98
2023-02-09T10:50:13.572Z,31.43
2023-02-09T10:52:54.649Z,31.59
2023-02-09T10:55:33.415Z,31.72
2023-02-09T10:58:10.533Z,31.67
2023-02-09T11:01:00.725Z,30.98
2023-02-09T11:03:29.202Z,31.16
2023-02-09T11:06:01.896Z,31.59
2023-02-09T11:08:46.442Z,31.52
2023-02-09T11:11:27.598Z,31.81
2023-02-09T11:13:55.471Z,31.31
2023-02-09T11:16:22.776Z,31.60
2023-02-09T11:19:24.109Z,32.09
2023-02-09T11:21:54.283Z,32.10
2023-02-09T11:24:45.010Z,32.29
2023-02-09T11:27:37.048Z,32.15
2023-02-09T11:30:11.687Z,31.65
2023-02-09T11:32:52.607Z,31.48
2023-02-09T11:35:25.229Z,31.71
2023-02-09T11:38:06.562Z,32.02
2023-02-09T11:40:33.838Z,31.97
2023-02-09T11:43:11.346Z,31.79
2023-02-09T11:45:51.762Z,31.69
2023-02-09T11:48:27.701Z,32.10
2023-02-09T11:51:03.998Z,32.60
2023-02-09T11:53:53.090Z,40.77
2023-02-09T11:56:23.613Z,41.57
2023-02-09T11:59:09.011Z,42.87
2023-02-09T12:01:42.553Z,44.43
2023-02-09T12:04:15.752Z,45.09
2023-02-09T12:07:00.455Z,45.13
2023-02-09T12:09:30.365Z,46.13
2023-02-09T12:12:12.983Z,44.62
2023-02-09T12:15:18.244Z,46.75
2023-02-09T12:17:58.794Z,45.52
2023-02-09T12:20:45.003Z,46.41
2023-02-09T12:23:36.453Z,47.43
2023-02-09T12:26:15.419Z,41.31
2023-02-09T12:29:16.911Z,46.29
2023-02-09T12:32:08.897Z,48.45
2023-02-09T12:34:47.196Z,48.26
2023-02-09T12:37:14.471Z,49.33
2023-02-09T12:40:11.266Z,50.70
2023-02-09T12:42:40.238Z,50.12
2023-02-09T12:45:30.602Z,49.19
2023-02-09T12:48:20.209Z,37.99
2023-02-09T12:50:52.436Z,44.10
2023-02-09T12:53:22.871Z,48.02
2023-02-09T12:56:11.294Z,48.01
2023-02-09T12:58:44.377Z,49.25
2023-02-09T13:01:13.589Z,49.32
2023-02-09T13:03:44.544Z,49.97
2023-02-09T13:06:45.014Z,49.95
2023-02-09T13:09:28.485Z,49.70
2023-02-09T13:12:11.066Z,48.76
2023-02-09T13:14:39.111Z,49.60
2023-02-09T13:17:09.406Z,49.16
2023-02-09T13:19:57.716Z,48.81
2023-02-09T13:22:29.883Z,49.43
2023-02-09T13:25:09.140Z,50.05
2023-02-09T13:27:46.184Z,50.30
2023-02-09T13:30:28.854Z,51.29
2023-02-09T13:33:18.595Z,51.40
2023-02-09T13:36:08.889Z,52.19
2023-02-09T13:38:40.785Z,51.50
2023-02-09T13:41:23.997Z,51.78
2023-02-09T13:43:51.273Z,51.81
2023-02-09T13:46:27.443Z,52.66
2023-02-09T13:48:55.530Z,52.46
2023-02-09T13:51:23.671Z,52.49
2023-02-09T13:54:02.138Z,52.68
2023-02-09T13:56:31.711Z,52.73
2023-02-09T13:59:00.423Z,53.03
2023-02-09T14:01:32.744Z,50.09
2023-02-09T14:04:22.908Z,50.73
2023-02-09T14:07:01.612Z,52.64
2023-02-09T14:09:33.767Z,52.29
2023-02-09T14:12:05.534Z,53.25
2023-02-09T14:15:00.237Z,53.21
2023-02-09T14:17:38.858Z,53.06
2023-02-09T14:20:24.655Z,52.47
2023-02-09T14:22:59.151Z,53.54
2023-02-09T14:25:29.568Z,53.10
2023-02-09T14:27:57.832Z,53.46
2023-02-09T14:30:32.794Z,54.15
2023-02-09T14:33:03.442Z,54.38
2023-02-09T14:35:38.434Z,54.53
2023-02-09T14:38:05.860Z,54.47
2023-02-09T14:40:37.231Z,54.46
2023-02-09T14:43:10.287Z,54.58
2023-02-09T14:45:44.415Z,54.83
2023-02-09T14:48:21.447Z,54.63
2023-02-09T14:50:53.232Z,54.77
2023-02-09T14:53:22.012Z,54.56
2023-02-09T14:55:49.693Z,53.96
2023-02-09T14:58:21.974Z,54.06
2023-02-09T15:00:51.149Z,54.00
2023-02-09T15:03:18.606Z,54.74
2023-02-09T15:05:48.654Z,44.08
2023-02-09T15:08:20.046Z,51.22
2023-02-09T15:10:53.337Z,52.22
2023-02-09T15:13:21.431Z,52.24
2023-02-09T15:15:49.167Z,52.08
2023-02-09T15:18:22.432Z,52.23
2023-02-09T15:20:50.277Z,52.19
2023-02-09T15:23:18.429Z,52.37
2023-02-09T15:25:46.170Z,52.42
2023-02-09T15:28:28.611Z,52.67
2023-02-09T15:30:57.930Z,52.55
2023-02-09T15:33:26.982Z,52.66
2023-02-09T15:35:54.733Z,52.58
2023-02-09T15:38:22.075Z,52.85
2023-02-09T15:41:08.769Z,50.71
2023-02-09T15:43:54.698Z,52.62
2023-02-09T15:46:40.551Z,51.27
2023-02-09T15:49:07.987Z,52.15
2023-02-09T15:51:37.800Z,52.32
2023-02-09T15:54:18.753Z,51.52
2023-02-09T15:56:46.956Z,51.46
2023-02-09T15:59:22.198Z,52.12
2023-02-09T16:01:50.779Z,51.79
2023-02-09T16:04:18.488Z,51.83
2023-02-09T16:06:52.378Z,51.32
2023-02-09T16:09:24.018Z,51.53
2023-02-09T16:11:51.311Z,50.99
2023-02-09T16:14:24.102Z,50.81
2023-02-09T16:16:52.019Z,50.86
2023-02-09T16:19:19.721Z,51.50
2023-02-09T16:21:50.682Z,51.48
2023-02-09T16:24:45.713Z,50.66
2023-02-09T16:27:30.473Z,50.21
2023-02-09T16:29:58.685Z,50.49
2023-02-09T16:32:28.462Z,50.71
2023-02-09T16:35:02.045Z,50.42
2023-02-09T16:37:38.448Z,50.37
2023-02-09T16:40:17.683Z,49.98
2023-02-09T16:42:46.714Z,49.71
2023-02-09T16:45:17.992Z,49.98
2023-02-09T16:47:50.302Z,49.50
2023-02-09T16:50:34.333Z,48.91
2023-02-09T16:53:13.529Z,49.25
2023-02-09T16:55:48.086Z,48.49
2023-02-09T16:58:16.892Z,47.67
2023-02-09T17:00:45.042Z,48.12
2023-02-09T17:03:20.014Z,46.58
2023-02-09T17:05:51.459Z,48.01
2023-02-09T17:08:21.987Z,47.80
2023-02-09T17:10:51.511Z,47.33
2023-02-09T17:13:22.548Z,47.83
2023-02-09T17:15:53.176Z,47.53
2023-02-09T17:18:27.432Z,46.22
2023-02-09T17:21:01.364Z,47.03
2023-02-09T17:23:30.795Z,46.22
2023-02-09T17:25:58.617Z,41.82
2023-02-09T17:28:27.906Z,45.15
2023-02-09T17:31:01.620Z,44.51
2023-02-09T17:33:34.331Z,44.30
2023-02-09T17:38:50.274Z,44.40
2023-02-09T17:41:25.265Z,41.63
2023-02-09T17:43:53.649Z,42.90
2023-02-09T17:46:21.425Z,42.93
2023-02-09T17:48:49.094Z,42.70
2023-02-09T17:51:23.543Z,43.57
2023-02-09T17:53:51.731Z,40.00
2023-02-09T17:56:19.536Z,40.46
2023-02-09T17:58:47.264Z,41.84
2023-02-09T18:01:27.776Z,43.28
2023-02-09T18:03:56.627Z,42.13
2023-02-09T18:06:38.431Z,43.19
2023-02-09T18:09:08.918Z,43.29
2023-02-09T18:11:57.134Z,42.70
2023-02-09T18:14:26.586Z,41.21
2023-02-09T18:16:55.133Z,44.24
2023-02-09T18:19:23.320Z,44.34
2023-02-09T18:21:56.740Z,44.10
2023-02-09T18:24:26.765Z,43.54
2023-02-09T18:26:54.342Z,44.13
2023-02-09T18:29:23.697Z,43.92
2023-02-09T18:31:51.223Z,44.81
2023-02-09T18:34:18.674Z,44.10
2023-02-09T18:36:46.291Z,44.18
2023-02-09T18:39:16.000Z,44.40
2023-02-09T18:41:44.922Z,45.11
2023-02-09T18:44:12.334Z,43.22
2023-02-09T18:46:41.511Z,43.63
2023-02-09T18:49:11.588Z,44.89
2023-02-09T18:51:38.903Z,44.58
2023-02-09T18:54:06.318Z,44.47
2023-02-09T18:56:33.590Z,43.59
2023-02-09T18:59:00.859Z,44.23
2023-02-09T19:01:28.218Z,44.07
2023-02-09T19:03:55.601Z,43.93
2023-02-09T19:06:25.366Z,43.50
2023-02-09T19:08:52.872Z,43.16
2023-02-09T19:11:22.450Z,43.15
2023-02-09T19:14:08.274Z,43.15
2023-02-09T19:16:37.296Z,42.27
2023-02-09T19:19:04.871Z,42.58
2023-02-09T19:21:32.670Z,42.75
2023-02-09T19:24:00.044Z,42.71
2023-02-09T19:26:27.252Z,43.27
2023-02-09T19:28:56.894Z,43.32
2023-02-09T19:31:24.814Z,43.62
2023-02-09T19:33:58.382Z,43.85
2023-02-09T19:36:27.924Z,44.09
2023-02-09T19:38:56.445Z,43.90
2023-02-09T19:41:25.564Z,43.70
2023-02-09T19:43:57.348Z,44.19
2023-02-09T19:46:25.173Z,43.49
2023-02-09T19:48:53.918Z,43.89
2023-02-09T19:51:22.007Z,43.79
2023-02-09T19:53:49.954Z,43.68
2023-02-09T19:56:20.828Z,43.66
2023-02-09T19:58:48.168Z,43.36
2023-02-09T20:01:15.991Z,43.30
2023-02-09T20:03:43.345Z,42.59
2023-02-09T20:06:13.101Z,42.25
2023-02-09T20:08:41.156Z,42.29
2023-02-09T20:11:17.325Z,42.58
2023-02-09T20:13:44.958Z,42.14
2023-02-09T20:16:18.405Z,42.48
2023-02-09T20:18:48.733Z,41.68
2023-02-09T20:21:17.634Z,41.34
2023-02-09T20:23:46.800Z,41.81
2023-02-09T20:26:22.711Z,41.46
2023-02-09T20:28:50.838Z,41.64
2023-02-09T20:31:21.432Z,41.09
2023-02-09T20:33:49.146Z,40.61
2023-02-09T20:36:17.413Z,40.69
2023-02-09T20:38:45.034Z,40.49
2023-02-09T20:41:15.761Z,39.97
2023-02-09T20:44:02.115Z,39.91
2023-02-09T20:46:49.686Z,41.02
2023-02-09T20:49:17.991Z,39.32
2023-02-09T20:51:46.084Z,40.10
2023-02-09T20:54:13.591Z,39.43
2023-02-09T20:56:41.202Z,39.58
2023-02-09T20:59:08.632Z,39.66
2023-02-09T21:01:39.428Z,39.53
2023-02-09T21:04:07.531Z,39.02
2023-02-09T21:06:39.604Z,39.65
2023-02-09T21:09:09.240Z,38.97
2023-02-09T21:11:36.766Z,38.60
2023-02-09T21:14:04.321Z,38.76
2023-02-09T21:16:31.914Z,39.15
2023-02-09T21:19:00.042Z,39.10
2023-02-09T21:21:27.506Z,38.90
2023-02-09T21:23:54.875Z,38.07
2023-02-09T21:26:24.472Z,37.81
2023-02-09T21:28:56.494Z,38.37
2023-02-09T21:31:26.998Z,37.90
2023-02-09T21:33:54.559Z,37.23
2023-02-09T21:36:22.024Z,37.09
2023-02-09T21:38:49.434Z,36.99
2023-02-09T21:41:38.469Z,36.91
2023-02-09T21:44:06.828Z,37.01
2023-02-09T21:46:34.460Z,36.67
2023-02-09T21:49:01.938Z,36.44
2023-02-09T21:51:29.210Z,36.32
2023-02-09T21:53:56.738Z,36.26
2023-02-09T21:56:23.979Z,36.53
2023-02-09T21:58:51.306Z,36.37
2023-02-09T22:01:18.630Z,36.48
2023-02-09T22:03:57.412Z,36.47
2023-02-09T22:06:26.089Z,36.36
2023-02-09T22:08:53.734Z,36.48
2023-02-09T22:11:22.494Z,36.72
2023-02-09T22:13:49.842Z,37.17
2023-02-09T22:16:20.314Z,36.99
2023-02-09T22:18:47.896Z,36.71
2023-02-09T22:21:15.517Z,36.05
2023-02-09T22:23:42.809Z,36.14
2023-02-09T22:26:12.946Z,36.13
2023-02-09T22:28:42.670Z,36.24
2023-02-09T22:31:13.034Z,36.00
2023-02-09T22:33:40.648Z,36.79
2023-02-09T22:36:11.475Z,36.76
2023-02-09T22:38:39.379Z,36.12
2023-02-09T22:41:21.352Z,35.93
2023-02-09T22:43:52.802Z,36.11
2023-02-09T22:46:22.002Z,36.08
2023-02-09T22:48:54.591Z,36.18
2023-02-09T22:51:23.609Z,36.24
2023-02-09T22:53:51.512Z,36.06
2023-02-09T22:56:18.887Z,35.85
2023-02-09T22:58:46.304Z,36.27
2023-02-09T23:01:13.984Z,36.00
2023-02-09T23:03:41.848Z,35.86
2023-02-09T23:06:12.908Z,36.21
2023-02-09T23:08:40.229Z,35.99
2023-02-09T23:11:10.628Z,35.97
2023-02-09T23:13:38.489Z,36.40
2023-02-09T23:16:14.422Z,36.40
2023-02-09T23:18:50.382Z,36.19
2023-02-09T23:21:19.504Z,36.86
2023-02-09T23:23:47.358Z,35.26
2023-02-09T23:26:16.143Z,35.70
2023-02-09T23:28:43.863Z,36.74
2023-02-09T23:31:14.722Z,36.63
2023-02-09T23:33:42.171Z,36.80
2023-02-09T23:36:13.607Z,36.46
2023-02-09T23:38:41.001Z,36.63
2023-02-09T23:41:13.544Z,36.44
2023-02-09T23:43:40.871Z,36.42
2023-02-09T23:46:13.378Z,36.31
2023-02-09T23:48:40.914Z,36.12
2023-02-09T23:51:15.377Z,36.30
2023-02-09T23:53:42.739Z,36.37
2023-02-09T23:56:10.050Z,36.28
2023-02-09T23:58:42.551Z,36.18
